createdAt,value
2023-05-09T00:00:20.833Z,6.47
2023-05-09T00:03:22.447Z,6.46
2023-05-09T00:06:24.197Z,6.37
2023-05-09T00:09:25.810Z,6.35
2023-05-09T00:12:28.513Z,6.31
2023-05-09T00:15:30.506Z,6.23
2023-05-09T00:18:34.109Z,6.07
2023-05-09T00:21:35.798Z,6.08
2023-05-09T00:24:37.350Z,6.01
2023-05-09T00:27:38.946Z,5.91
2023-05-09T00:30:40.540Z,5.92
2023-05-09T00:33:42.103Z,5.97
2023-05-09T00:36:43.665Z,6.03
2023-05-09T00:39:46.190Z,5.99
2023-05-09T00:42:47.787Z,5.97
2023-05-09T00:45:49.918Z,5.95
2023-05-09T00:48:52.552Z,6.04
2023-05-09T00:51:55.745Z,5.97
2023-05-09T00:54:58.428Z,6.07
2023-05-09T00:58:00.040Z,6.11
2023-05-09T01:01:03.807Z,6.02
2023-05-09T01:04:05.784Z,6.00
2023-05-09T01:07:14.002Z,5.97
2023-05-09T01:10:26.596Z,5.96
2023-05-09T01:13:46.954Z,5.97
2023-05-09T01:16:51.412Z,6.09
2023-05-09T01:20:17.709Z,6.09
2023-05-09T01:23:31.389Z,6.08
2023-05-09T01:26:32.881Z,6.13
2023-05-09T01:29:43.712Z,6.02
2023-05-09T01:32:50.198Z,5.98
2023-05-09T01:35:57.922Z,5.89
2023-05-09T01:38:59.924Z,5.89
2023-05-09T01:42:04.719Z,5.85
2023-05-09T01:45:07.959Z,5.77
2023-05-09T01:48:11.194Z,5.64
2023-05-09T01:51:14.289Z,5.61
2023-05-09T01:54:17.718Z,5.43
2023-05-09T01:57:20.523Z,5.32
2023-05-09T02:00:23.770Z,5.42
2023-05-09T02:03:26.071Z,5.34
2023-05-09T02:06:29.959Z,5.43
2023-05-09T02:09:31.679Z,5.38
2023-05-09T02:12:34.126Z,5.32
2023-05-09T02:15:35.938Z,5.21
2023-05-09T02:18:38.454Z,5.21
2023-05-09T02:21:40.202Z,5.15
2023-05-09T02:24:45.253Z,5.01
2023-05-09T02:27:47.247Z,5.05
2023-05-09T02:30:50.415Z,5.11
2023-05-09T02:33:54.855Z,5.08
2023-05-09T02:36:56.619Z,5.09
2023-05-09T02:39:58.575Z,5.10
2023-05-09T02:43:00.272Z,5.00
2023-05-09T02:46:01.902Z,4.94
2023-05-09T02:49:03.495Z,4.94
2023-05-09T02:52:05.362Z,4.80
2023-05-09T02:55:07.682Z,4.76
2023-05-09T02:58:14.028Z,4.90
2023-05-09T03:01:16.721Z,4.88
2023-05-09T03:04:18.366Z,4.78
2023-05-09T03:07:19.953Z,4.79
2023-05-09T03:10:21.546Z,4.75
2023-05-09T03:13:23.168Z,4.63
2023-05-09T03:16:24.834Z,4.58
2023-05-09T03:19:26.553Z,4.57
2023-05-09T03:22:28.188Z,4.62
2023-05-09T03:25:29.815Z,4.57
2023-05-09T03:28:31.545Z,4.69
2023-05-09T03:31:33.619Z,4.69
2023-05-09T03:34:35.573Z,4.80
2023-05-09T03:37:37.166Z,4.90
2023-05-09T03:40:38.751Z,5.01
2023-05-09T03:43:40.481Z,5.17
2023-05-09T03:46:42.098Z,5.21
2023-05-09T03:49:43.720Z,5.31
2023-05-09T03:52:45.320Z,5.47
2023-05-09T03:55:47.022Z,5.51
2023-05-09T03:58:48.603Z,5.63
2023-05-09T04:01:50.371Z,5.71
2023-05-09T04:04:52.819Z,5.89
2023-05-09T04:07:54.412Z,6.09
2023-05-09T04:10:55.986Z,6.26
2023-05-09T04:13:57.622Z,6.40
2023-05-09T04:16:59.249Z,6.52
2023-05-09T04:20:01.310Z,6.72
2023-05-09T04:23:03.161Z,6.94
2023-05-09T04:26:04.922Z,7.10
2023-05-09T04:29:06.534Z,7.26
2023-05-09T04:32:08.472Z,7.43
2023-05-09T04:35:10.199Z,7.52
2023-05-09T04:38:12.648Z,7.54
2023-05-09T04:41:14.250Z,7.77
2023-05-09T04:44:17.124Z,7.97
2023-05-09T04:47:18.763Z,8.11
2023-05-09T04:50:20.515Z,8.30
2023-05-09T04:53:22.078Z,8.57
2023-05-09T04:56:23.814Z,8.73
2023-05-09T04:59:25.482Z,8.71
2023-05-09T05:02:27.111Z,8.93
2023-05-09T05:05:28.943Z,9.13
2023-05-09T05:08:30.739Z,9.12
2023-05-09T05:11:32.336Z,9.47
2023-05-09T05:14:33.978Z,9.61
2023-05-09T05:17:35.615Z,9.79
2023-05-09T05:20:37.316Z,9.83
2023-05-09T05:23:38.948Z,10.03
2023-05-09T05:26:40.768Z,10.22
2023-05-09T05:29:42.336Z,10.38
2023-05-09T05:32:44.189Z,10.40
2023-05-09T05:35:45.800Z,10.48
2023-05-09T05:38:47.369Z,10.55
2023-05-09T05:41:48.963Z,10.74
2023-05-09T05:44:50.580Z,10.93
2023-05-09T05:47:52.200Z,10.99
2023-05-09T05:50:54.230Z,11.14
2023-05-09T05:53:55.836Z,11.24
2023-05-09T05:56:57.420Z,11.35
2023-05-09T05:59:59.013Z,11.23
2023-05-09T06:03:00.665Z,11.36
2023-05-09T06:06:02.414Z,11.63
2023-05-09T06:09:04.057Z,11.76
2023-05-09T06:12:06.464Z,11.98
2023-05-09T06:15:08.427Z,12.05
2023-05-09T06:18:10.148Z,12.20
2023-05-09T06:21:11.785Z,12.21
2023-05-09T06:24:23.440Z,12.32
2023-05-09T06:27:33.609Z,12.81
2023-05-09T06:30:35.285Z,12.92
2023-05-09T06:33:36.934Z,13.10
2023-05-09T06:36:38.507Z,12.97
2023-05-09T06:39:40.266Z,13.18
2023-05-09T06:42:41.863Z,13.31
2023-05-09T06:45:43.506Z,13.34
2023-05-09T06:48:45.174Z,13.41
2023-05-09T06:51:46.718Z,13.35
2023-05-09T06:54:48.277Z,13.63
2023-05-09T06:57:50.188Z,13.76
2023-05-09T07:00:51.853Z,13.82
2023-05-09T07:03:53.460Z,14.19
2023-05-09T07:06:55.012Z,14.23
2023-05-09T07:10:07.329Z,14.47
2023-05-09T07:13:13.440Z,14.58
2023-05-09T07:16:15.914Z,14.38
2023-05-09T07:19:17.516Z,14.64
2023-05-09T07:22:19.341Z,14.77
2023-05-09T07:25:21.153Z,15.00
2023-05-09T07:28:22.710Z,15.06
2023-05-09T07:31:24.311Z,15.40
2023-05-09T07:34:25.927Z,15.46
2023-05-09T07:37:27.507Z,15.44
2023-05-09T07:40:29.069Z,15.61
2023-05-09T07:43:30.616Z,15.84
2023-05-09T07:46:32.182Z,15.69
2023-05-09T07:49:33.765Z,15.65
2023-05-09T07:52:35.364Z,16.06
2023-05-09T07:55:36.991Z,16.10
2023-05-09T07:58:38.566Z,15.99
2023-05-09T08:01:40.478Z,16.48
2023-05-09T08:04:42.355Z,16.51
2023-05-09T08:07:44.031Z,16.99
2023-05-09T08:10:45.884Z,16.52
2023-05-09T08:13:48.294Z,16.87
2023-05-09T08:16:49.886Z,16.94
2023-05-09T08:19:51.405Z,16.99
2023-05-09T08:22:52.977Z,17.33
2023-05-09T08:25:54.814Z,16.87
2023-05-09T08:28:56.447Z,16.83
2023-05-09T08:31:58.113Z,17.49
2023-05-09T08:34:59.700Z,17.22
2023-05-09T08:38:01.462Z,17.75
2023-05-09T08:41:03.482Z,18.15
2023-05-09T08:44:05.200Z,18.25
2023-05-09T08:47:07.476Z,18.62
2023-05-09T08:50:11.635Z,18.25
2023-05-09T08:53:14.231Z,18.52
2023-05-09T08:56:15.945Z,18.98
2023-05-09T08:59:18.919Z,19.11
2023-05-09T09:02:22.366Z,18.57
2023-05-09T09:05:40.145Z,19.20
2023-05-09T09:08:43.386Z,18.96
2023-05-09T09:11:45.532Z,18.79
2023-05-09T09:14:52.717Z,19.18
2023-05-09T09:17:58.676Z,19.32
2023-05-09T09:21:06.349Z,19.85
2023-05-09T09:24:08.143Z,19.55
2023-05-09T09:27:09.709Z,19.50
2023-05-09T09:30:12.446Z,19.90
2023-05-09T09:33:24.491Z,20.31
2023-05-09T09:36:32.651Z,19.60
2023-05-09T09:39:34.359Z,19.84
2023-05-09T09:42:46.863Z,19.98
2023-05-09T09:45:51.656Z,20.69
2023-05-09T09:48:56.760Z,21.13
2023-05-09T09:51:58.835Z,21.21
2023-05-09T09:55:00.471Z,21.80
2023-05-09T09:58:02.061Z,21.76
2023-05-09T10:01:07.582Z,22.14
2023-05-09T10:04:15.571Z,21.80
2023-05-09T10:07:22.137Z,20.69
2023-05-09T10:10:26.950Z,21.39
2023-05-09T10:13:28.936Z,21.62
2023-05-09T10:16:42.631Z,20.58
2023-05-09T10:19:47.629Z,21.46
2023-05-09T10:22:53.802Z,20.15
2023-05-09T10:26:15.678Z,21.11
2023-05-09T10:29:23.949Z,22.13
2023-05-09T10:32:38.092Z,21.08
2023-05-09T10:36:01.229Z,20.04
2023-05-09T10:39:02.944Z,20.98
2023-05-09T10:42:05.441Z,22.35
2023-05-09T10:45:09.535Z,23.54
2023-05-09T10:48:11.804Z,22.26
2023-05-09T10:51:13.922Z,22.28
2023-05-09T10:54:30.079Z,22.44
2023-05-09T10:57:32.833Z,22.45
2023-05-09T11:00:34.487Z,23.60
2023-05-09T11:03:56.870Z,23.84
2023-05-09T11:07:00.539Z,22.33
2023-05-09T11:10:09.234Z,21.78
2023-05-09T11:13:10.798Z,21.43
2023-05-09T11:16:12.655Z,21.32
2023-05-09T11:19:34.044Z,20.61
2023-05-09T11:22:41.521Z,19.88
2023-05-09T11:25:46.228Z,20.07
2023-05-09T11:28:53.447Z,20.58
2023-05-09T11:32:08.013Z,19.76
2023-05-09T11:35:12.089Z,19.00
2023-05-09T11:38:21.559Z,21.29
2023-05-09T11:41:23.246Z,24.12
2023-05-09T11:44:25.487Z,24.30
2023-05-09T11:47:29.012Z,25.23
2023-05-09T11:50:30.645Z,24.32
2023-05-09T11:53:32.401Z,21.38
2023-05-09T11:56:40.791Z,22.33
2023-05-09T11:59:42.670Z,23.69
2023-05-09T12:02:46.103Z,24.32
2023-05-09T12:05:49.080Z,24.66
2023-05-09T12:08:50.810Z,24.10
2023-05-09T12:11:52.786Z,22.71
2023-05-09T12:14:56.071Z,23.33
2023-05-09T12:18:05.264Z,25.28
2023-05-09T12:21:07.527Z,26.41
2023-05-09T12:24:09.120Z,25.83
2023-05-09T12:27:10.891Z,23.14
2023-05-09T12:30:14.201Z,22.46
2023-05-09T12:33:16.690Z,21.38
2023-05-09T12:36:18.779Z,19.98
2023-05-09T12:39:23.077Z,22.57
2023-05-09T12:42:28.656Z,21.59
2023-05-09T12:45:33.712Z,20.80
2023-05-09T12:48:38.045Z,20.61
2023-05-09T12:51:49.406Z,20.55
2023-05-09T12:54:53.322Z,21.58
2023-05-09T12:57:59.548Z,23.47
2023-05-09T13:01:04.655Z,24.34
2023-05-09T13:04:07.728Z,26.26
2023-05-09T13:07:10.435Z,26.98
2023-05-09T13:10:19.332Z,24.94
2023-05-09T13:13:24.788Z,24.58
2023-05-09T13:16:26.915Z,23.77
2023-05-09T13:19:28.547Z,22.98
2023-05-09T13:22:30.145Z,21.91
2023-05-09T13:25:31.852Z,20.93
2023-05-09T13:28:33.514Z,20.61
2023-05-09T13:31:35.244Z,22.14
2023-05-09T13:34:36.938Z,22.51
2023-05-09T13:37:38.788Z,24.25
2023-05-09T13:40:40.393Z,25.79
2023-05-09T13:43:42.656Z,23.96
2023-05-09T13:46:45.902Z,22.67
2023-05-09T13:49:47.732Z,21.48
2023-05-09T13:52:50.013Z,22.20
2023-05-09T13:55:51.577Z,24.08
2023-05-09T13:58:53.196Z,24.96
2023-05-09T14:01:57.487Z,24.22
2023-05-09T14:04:59.148Z,26.37
2023-05-09T14:08:01.783Z,24.74
2023-05-09T14:11:03.401Z,23.10
2023-05-09T14:14:04.950Z,21.82
2023-05-09T14:17:06.533Z,20.36
2023-05-09T14:20:08.714Z,20.10
2023-05-09T14:23:10.465Z,20.55
2023-05-09T14:26:12.163Z,22.29
2023-05-09T14:29:13.741Z,21.03
2023-05-09T14:32:15.335Z,20.69
2023-05-09T14:35:17.213Z,20.15
2023-05-09T14:38:18.886Z,19.75
2023-05-09T14:41:21.478Z,20.36
2023-05-09T14:44:25.063Z,23.30
2023-05-09T14:47:26.782Z,23.32
2023-05-09T14:50:28.500Z,24.31
2023-05-09T14:53:30.336Z,22.03
2023-05-09T14:56:31.952Z,21.34
2023-05-09T14:59:36.124Z,21.18
2023-05-09T15:02:39.561Z,19.87
2023-05-09T15:05:41.836Z,19.72
2023-05-09T15:08:43.405Z,19.19
2023-05-09T15:11:48.631Z,19.33
2023-05-09T15:14:53.901Z,18.75
2023-05-09T15:17:55.500Z,19.06
2023-05-09T15:20:57.476Z,18.85
2023-05-09T15:23:59.413Z,18.63
2023-05-09T15:27:01.001Z,18.69
2023-05-09T15:30:03.065Z,18.82
2023-05-09T15:33:04.800Z,19.57
2023-05-09T15:36:06.916Z,22.53
2023-05-09T15:39:08.782Z,24.64
2023-05-09T15:42:12.325Z,24.96
2023-05-09T15:45:13.957Z,25.42
2023-05-09T15:48:16.322Z,26.30
2023-05-09T15:51:17.920Z,25.79
2023-05-09T15:54:20.276Z,25.37
2023-05-09T15:57:22.135Z,26.16
2023-05-09T16:00:24.270Z,25.18
2023-05-09T16:03:25.953Z,24.53
2023-05-09T16:06:28.671Z,25.22
2023-05-09T16:09:30.289Z,25.89
2023-05-09T16:12:32.950Z,27.19
2023-05-09T16:15:35.189Z,25.15
2023-05-09T16:18:36.779Z,23.08
2023-05-09T16:21:39.289Z,21.64
2023-05-09T16:24:40.901Z,21.46
2023-05-09T16:27:44.926Z,20.95
2023-05-09T16:30:46.650Z,20.35
2023-05-09T16:33:48.229Z,19.88
2023-05-09T16:36:50.054Z,19.73
2023-05-09T16:39:51.617Z,19.13
2023-05-09T16:42:53.886Z,18.66
2023-05-09T16:45:55.510Z,18.28
2023-05-09T16:48:57.206Z,18.02
2023-05-09T16:51:59.458Z,17.87
2023-05-09T16:55:01.157Z,17.61
2023-05-09T16:58:02.806Z,17.51
2023-05-09T17:01:04.480Z,17.26
2023-05-09T17:04:06.884Z,17.03
2023-05-09T17:07:08.863Z,16.94
2023-05-09T17:10:11.137Z,16.62
2023-05-09T17:13:12.740Z,16.62
2023-05-09T17:16:14.425Z,16.41
2023-05-09T17:19:16.644Z,16.31
2023-05-09T17:22:18.528Z,16.29
2023-05-09T17:25:20.140Z,15.98
2023-05-09T17:28:21.731Z,15.68
2023-05-09T17:31:23.426Z,15.70
2023-05-09T17:34:24.976Z,15.46
2023-05-09T17:37:26.591Z,15.30
2023-05-09T17:40:28.761Z,15.19
2023-05-09T17:43:30.941Z,14.95
2023-05-09T17:46:32.833Z,14.78
2023-05-09T17:49:34.435Z,14.61
2023-05-09T17:52:37.185Z,14.50
2023-05-09T17:55:39.237Z,14.19
2023-05-09T17:58:41.072Z,14.30
2023-05-09T18:01:42.828Z,14.17
2023-05-09T18:04:46.365Z,14.03
2023-05-09T18:07:47.936Z,13.93
2023-05-09T18:10:49.841Z,13.83
2023-05-09T18:13:51.453Z,13.74
2023-05-09T18:16:53.066Z,13.55
2023-05-09T18:19:54.688Z,13.46
2023-05-09T18:22:57.203Z,13.34
2023-05-09T18:25:58.831Z,13.29
2023-05-09T18:29:00.372Z,13.15
2023-05-09T18:32:02.149Z,13.01
2023-05-09T18:35:04.227Z,12.90
2023-05-09T18:38:05.803Z,12.81
2023-05-09T18:41:09.624Z,12.73
2023-05-09T18:44:11.249Z,12.55
2023-05-09T18:47:13.197Z,12.47
2023-05-09T18:50:15.168Z,12.36
2023-05-09T18:53:16.967Z,12.38
2023-05-09T18:56:22.327Z,12.26
2023-05-09T18:59:24.499Z,12.25
2023-05-09T19:02:26.675Z,12.22
2023-05-09T19:05:28.295Z,12.13
2023-05-09T19:08:30.494Z,12.04
2023-05-09T19:11:32.183Z,12.00
2023-05-09T19:14:33.829Z,11.87
2023-05-09T19:17:35.450Z,11.69
2023-05-09T19:20:46.480Z,11.62
2023-05-09T19:23:49.172Z,11.68
2023-05-09T19:26:50.907Z,11.58
2023-05-09T19:29:52.523Z,11.48
2023-05-09T19:32:54.157Z,11.42
2023-05-09T19:35:55.730Z,11.35
2023-05-09T19:38:57.391Z,11.39
2023-05-09T19:42:00.463Z,11.36
2023-05-09T19:45:04.510Z,11.31
2023-05-09T19:48:06.549Z,11.21
2023-05-09T19:51:12.173Z,11.24
2023-05-09T19:54:14.233Z,11.20
2023-05-09T19:57:16.310Z,11.23
2023-05-09T20:00:18.634Z,11.19
2023-05-09T20:03:20.501Z,11.19
2023-05-09T20:06:22.283Z,11.20
2023-05-09T20:09:23.820Z,11.14
2023-05-09T20:12:26.344Z,11.12
2023-05-09T20:15:28.903Z,11.11
2023-05-09T20:18:33.425Z,11.11
2023-05-09T20:21:35.437Z,11.07
2023-05-09T20:24:36.988Z,11.03
2023-05-09T20:27:38.616Z,11.02
2023-05-09T20:30:40.212Z,10.98
2023-05-09T20:33:41.799Z,11.00
2023-05-09T20:36:46.739Z,10.97
2023-05-09T20:39:48.311Z,10.88
2023-05-09T20:42:49.847Z,10.76
2023-05-09T20:45:51.941Z,10.61
2023-05-09T20:48:53.557Z,10.67
2023-05-09T20:51:55.309Z,10.58
2023-05-09T20:54:56.899Z,10.49
2023-05-09T20:57:58.492Z,10.41
2023-05-09T21:01:00.312Z,10.29
2023-05-09T21:04:03.967Z,10.33
2023-05-09T21:07:05.634Z,10.19
2023-05-09T21:10:07.895Z,10.11
2023-05-09T21:13:09.571Z,10.06
2023-05-09T21:16:11.238Z,9.98
2023-05-09T21:19:12.821Z,9.99
2023-05-09T21:22:14.389Z,9.99
2023-05-09T21:25:17.451Z,9.89
2023-05-09T21:28:19.578Z,9.82
2023-05-09T21:31:21.260Z,9.87
2023-05-09T21:34:22.858Z,9.81
2023-05-09T21:37:24.415Z,9.74
2023-05-09T21:40:26.054Z,9.67
2023-05-09T21:43:28.646Z,9.61
2023-05-09T21:46:33.664Z,9.47
2023-05-09T21:49:35.281Z,9.46
2023-05-09T21:52:36.867Z,9.37
2023-05-09T21:55:38.443Z,9.29
2023-05-09T21:58:40.064Z,9.18
2023-05-09T22:01:43.693Z,9.12
2023-05-09T22:04:46.697Z,9.02
2023-05-09T22:07:48.275Z,8.99
2023-05-09T22:10:49.817Z,8.97
2023-05-09T22:13:51.371Z,8.93
2023-05-09T22:16:52.988Z,8.92
2023-05-09T22:19:54.585Z,8.95
2023-05-09T22:22:56.344Z,9.05
2023-05-09T22:25:58.222Z,9.00
2023-05-09T22:29:00.314Z,9.13
2023-05-09T22:32:02.738Z,9.24
2023-05-09T22:35:04.819Z,9.34
2023-05-09T22:38:06.594Z,9.45
2023-05-09T22:41:08.170Z,9.62
2023-05-09T22:44:09.755Z,9.79
2023-05-09T22:47:11.298Z,9.79
2023-05-09T22:50:13.047Z,9.90
2023-05-09T22:53:14.621Z,9.89
2023-05-09T22:56:16.372Z,9.92
2023-05-09T22:59:17.974Z,9.89
2023-05-09T23:02:19.599Z,9.70
2023-05-09T23:05:21.302Z,9.70
2023-05-09T23:08:41.399Z,9.65
2023-05-09T23:12:02.619Z,9.63
2023-05-09T23:15:06.387Z,9.59
2023-05-09T23:18:08.093Z,9.52
2023-05-09T23:21:09.990Z,9.55
2023-05-09T23:24:11.582Z,9.57
2023-05-09T23:27:13.151Z,9.47
2023-05-09T23:30:14.834Z,9.70
2023-05-09T23:33:16.832Z,10.08
2023-05-09T23:36:18.395Z,9.96
2023-05-09T23:39:19.975Z,10.00
2023-05-09T23:42:22.443Z,9.94
2023-05-09T23:45:24.081Z,10.16
2023-05-09T23:48:25.857Z,10.20
2023-05-09T23:51:27.450Z,10.25
2023-05-09T23:54:29.115Z,10.03
2023-05-09T23:57:30.706Z,9.89
